Naponee, Nebraska
Current Conditions -  °F | °C
As of 3:55 AM on Saturday 29 Nov 2014 (Local Time) from KHDE Reporting Station
Clear Clear  
Wind Chill: 30°   Ceiling: Unl
Heat Index: 36°   Visibility: 10mi
Dew Point: 17°   Wind: 8mph
Humidity: 47%   Direction: 320°NW
Pressure: 29.61"   Gusts: NA
Location:  40.08°N, 99.14°W
Report Text: KHDE 290955Z AUTO 32007KT 10SM CLR 02/M08 A2961 RMK AO2 T00221082
Loading
Personal Weather Stations






























Interactive Weather Map New forecast layout! Learn more

10-Day Weather Forecast

Advertisements
Track Severe Weather on mobile